Pea Ridge, Arkansas
Current Conditions -  °F | °C
As of 11:57 PM on Saturday 25 Oct 2014 (Local Time) from KROG Reporting Station
Clear Clear  
Wind Chill: 63°   Ceiling: Unl
Heat Index: 63°   Visibility: 10mi
Dew Point: 60°   Wind: 6mph
Humidity: 90%   Direction: 160°SSE
Pressure: 30.05"   Gusts: NA
Location:  36.45°N, 94.12°W
Report Text: KROG 260457Z AUTO 16005KT 10SM CLR 17/16 A3005 RMK AO2 SLP164 T01720156 402830150
Loading
Personal Weather Stations






























Interactive Weather Map
Tropical Storm Tracking
New forecast layout! Learn more

10-Day Weather Forecast

Advertisements
Track Severe Weather on mobile